In Rescue
 
Open Full Screen Window  High Contrast Mode
Wind Gusting 16 knots
10
August 09, 2020 5:47 PM CDT
Weather Information
Wind Direction
  190 °
Wind Speed
  10 kt (12 mph)
Wind Gust
  16 kt (18 mph)
Altimeter
29.84 in
Visibility
10 SM
Temperature
29° C
84° F
Dewpoint
22° C
72° F
Humidity
66%
1hr Rain Fall
00.00 in.
24hr Rain Fall
00.39 in.
Sky Condition
Clear
VFR

METAR KAEL 092247Z AUTO 19010G16KT 10SM CLR 29/22 A2984 RMK AO2

FAA Disclaimer: The data displayed is for advisory purposes only and is not to be used for flight planning or operations.